createdAt,value
2024-03-09T00:01:29.215Z,26.20
2024-03-09T00:03:59.438Z,26.20
2024-03-09T00:06:28.889Z,26.20
2024-03-09T00:08:58.377Z,26.30
2024-03-09T00:11:28.575Z,26.30
2024-03-09T00:13:58.759Z,26.30
2024-03-09T00:16:28.440Z,26.30
2024-03-09T00:19:02.601Z,26.30
2024-03-09T00:21:34.205Z,26.30
2024-03-09T00:24:06.229Z,26.40
2024-03-09T00:26:35.740Z,26.40
2024-03-09T00:29:05.152Z,26.40
2024-03-09T00:31:35.634Z,26.40
2024-03-09T00:34:05.076Z,26.50
2024-03-09T00:36:35.544Z,26.50
2024-03-09T00:39:06.061Z,26.60
2024-03-09T00:41:36.167Z,26.60
2024-03-09T00:44:06.471Z,26.60
2024-03-09T00:46:38.156Z,26.60
2024-03-09T00:49:07.638Z,26.70
2024-03-09T00:51:36.995Z,26.70
2024-03-09T00:54:06.808Z,26.70
2024-03-09T00:56:36.220Z,26.70
2024-03-09T00:59:07.694Z,26.80
2024-03-09T01:01:39.823Z,26.90
2024-03-09T01:04:09.273Z,26.90
2024-03-09T01:06:42.112Z,27.00
2024-03-09T01:09:16.132Z,27.00
2024-03-09T01:11:45.656Z,27.10
2024-03-09T01:14:15.610Z,27.10
2024-03-09T01:16:46.801Z,27.20
2024-03-09T01:19:16.690Z,27.30
2024-03-09T01:21:48.843Z,27.30
2024-03-09T01:24:18.513Z,27.30
2024-03-09T01:26:47.905Z,27.40
2024-03-09T01:29:18.392Z,27.40
2024-03-09T01:31:48.003Z,27.40
2024-03-09T01:34:18.061Z,27.40
2024-03-09T01:36:47.675Z,27.50
2024-03-09T01:39:17.801Z,27.60
2024-03-09T01:41:47.286Z,27.60
2024-03-09T01:44:17.129Z,27.70
2024-03-09T01:46:49.426Z,27.80
2024-03-09T01:49:21.837Z,27.90
2024-03-09T01:52:03.719Z,28.00
2024-03-09T01:54:42.505Z,28.00
2024-03-09T01:57:18.727Z,28.10
2024-03-09T01:59:59.645Z,28.20
2024-03-09T02:02:29.422Z,28.20
2024-03-09T02:05:00.572Z,28.30
2024-03-09T02:07:30.094Z,28.40
2024-03-09T02:09:59.485Z,28.50
2024-03-09T02:12:29.030Z,28.60
2024-03-09T02:14:58.405Z,28.70
2024-03-09T02:17:27.910Z,28.70
2024-03-09T02:19:58.073Z,28.80
2024-03-09T02:22:29.465Z,28.80
2024-03-09T02:24:59.474Z,28.90
2024-03-09T02:27:29.099Z,28.90
2024-03-09T02:29:59.152Z,28.90
2024-03-09T02:32:31.890Z,28.90
2024-03-09T02:35:01.340Z,29.00
2024-03-09T02:37:30.726Z,29.00
2024-03-09T02:40:00.217Z,29.00
2024-03-09T02:42:29.738Z,29.00
2024-03-09T02:44:59.147Z,29.00
2024-03-09T02:47:29.570Z,29.00
2024-03-09T02:49:59.458Z,29.00
2024-03-09T02:52:29.284Z,29.10
2024-03-09T02:54:58.679Z,29.10
2024-03-09T02:57:28.943Z,29.10
2024-03-09T02:59:58.401Z,29.20
2024-03-09T03:02:46.151Z,29.20
2024-03-09T03:05:15.902Z,29.30
2024-03-09T03:07:45.813Z,29.30
2024-03-09T03:10:15.348Z,29.30
2024-03-09T03:12:44.970Z,29.40
2024-03-09T03:15:17.216Z,29.50
2024-03-09T03:17:46.971Z,29.60
2024-03-09T03:20:16.838Z,29.60
2024-03-09T03:22:48.349Z,29.70
2024-03-09T03:25:18.104Z,29.70
2024-03-09T03:27:49.422Z,29.80
2024-03-09T03:30:19.056Z,29.80
2024-03-09T03:32:48.662Z,29.90
2024-03-09T03:35:19.772Z,29.90
2024-03-09T03:37:49.462Z,29.90
2024-03-09T03:40:19.621Z,30.00
2024-03-09T03:42:49.148Z,30.00
2024-03-09T03:45:18.591Z,30.00
2024-03-09T03:47:48.268Z,29.90
2024-03-09T03:50:18.595Z,29.90
2024-03-09T03:52:52.472Z,29.90
2024-03-09T03:55:22.683Z,30.00
2024-03-09T03:57:53.301Z,30.00
2024-03-09T04:00:23.368Z,30.00
2024-03-09T04:02:53.054Z,30.00
2024-03-09T04:05:22.571Z,30.10
2024-03-09T04:07:52.136Z,30.10
2024-03-09T04:10:23.167Z,30.20
2024-03-09T04:12:52.653Z,30.20
2024-03-09T04:15:22.634Z,30.30
2024-03-09T04:17:53.374Z,30.40
2024-03-09T04:20:24.045Z,30.50
2024-03-09T04:22:53.635Z,30.60
2024-03-09T04:25:25.100Z,30.60
2024-03-09T04:27:58.521Z,30.70
2024-03-09T04:30:28.015Z,30.80
2024-03-09T04:32:57.718Z,30.80
2024-03-09T04:35:27.283Z,30.90
2024-03-09T04:37:56.988Z,30.90
2024-03-09T04:40:26.901Z,30.90
2024-03-09T04:42:57.396Z,31.00
2024-03-09T04:45:32.221Z,31.10
2024-03-09T04:48:03.446Z,31.10
2024-03-09T04:50:40.662Z,31.10
2024-03-09T04:53:10.831Z,31.10
2024-03-09T04:55:42.323Z,31.10
2024-03-09T04:58:20.157Z,31.00
2024-03-09T05:00:49.936Z,30.90
2024-03-09T05:03:22.217Z,30.90
2024-03-09T05:05:51.813Z,30.90
2024-03-09T05:08:21.298Z,30.80
2024-03-09T05:10:50.891Z,30.80
2024-03-09T05:13:20.202Z,30.80
2024-03-09T05:15:52.295Z,30.80
2024-03-09T05:18:22.171Z,30.80
2024-03-09T05:20:51.573Z,30.80
2024-03-09T05:23:21.065Z,30.90
2024-03-09T05:25:50.578Z,30.90
2024-03-09T05:28:22.533Z,30.90
2024-03-09T05:30:51.820Z,30.90
2024-03-09T05:33:22.195Z,31.00
2024-03-09T05:35:51.588Z,31.00
2024-03-09T05:38:22.493Z,31.10
2024-03-09T05:40:51.902Z,31.10
2024-03-09T05:43:21.409Z,31.20
2024-03-09T05:45:50.788Z,31.30
2024-03-09T05:48:20.194Z,31.40
2024-03-09T05:50:49.773Z,31.40
2024-03-09T05:53:19.556Z,31.50
2024-03-09T05:55:49.037Z,31.60
2024-03-09T05:58:22.195Z,31.60
2024-03-09T06:00:51.741Z,31.70
2024-03-09T06:03:21.061Z,31.70
2024-03-09T06:05:51.036Z,31.70
2024-03-09T06:08:20.410Z,31.60
2024-03-09T06:11:01.112Z,31.60
2024-03-09T06:13:34.312Z,31.60
2024-03-09T06:16:03.761Z,31.50
2024-03-09T06:18:33.543Z,31.50
2024-03-09T06:21:03.057Z,31.50
2024-03-09T06:23:32.412Z,31.50
2024-03-09T06:26:01.993Z,31.50
2024-03-09T06:28:31.411Z,31.50
2024-03-09T06:31:00.926Z,31.50
2024-03-09T06:33:30.379Z,31.60
2024-03-09T06:36:07.009Z,31.60
2024-03-09T06:38:39.599Z,31.70
2024-03-09T06:41:12.279Z,31.80
2024-03-09T06:43:42.155Z,31.80
2024-03-09T06:46:13.248Z,31.90
2024-03-09T06:48:43.103Z,31.90
2024-03-09T06:51:13.601Z,31.90
2024-03-09T06:53:45.868Z,31.90
2024-03-09T06:56:15.435Z,31.90
2024-03-09T06:58:44.872Z,31.90
2024-03-09T07:01:22.418Z,31.90
2024-03-09T07:03:51.948Z,31.90
2024-03-09T07:06:21.440Z,31.90
2024-03-09T07:08:52.501Z,31.90
2024-03-09T07:11:22.529Z,31.90
2024-03-09T07:13:52.529Z,32.00
2024-03-09T07:16:21.877Z,32.00
2024-03-09T07:18:51.420Z,32.10
2024-03-09T07:21:23.095Z,32.10
2024-03-09T07:23:52.810Z,32.10
2024-03-09T07:26:22.360Z,32.00
2024-03-09T07:28:51.888Z,32.00
2024-03-09T07:31:21.295Z,31.90
2024-03-09T07:33:55.823Z,31.90
2024-03-09T07:36:26.019Z,31.90
2024-03-09T07:38:56.846Z,31.90
2024-03-09T07:41:26.478Z,31.90
2024-03-09T07:43:55.956Z,31.90
2024-03-09T07:46:26.510Z,31.90
2024-03-09T07:48:55.976Z,31.90
2024-03-09T07:51:25.392Z,31.90
2024-03-09T07:53:54.777Z,31.90
2024-03-09T07:56:25.734Z,31.80
2024-03-09T07:58:55.511Z,31.80
2024-03-09T08:01:24.961Z,31.70
2024-03-09T08:03:54.422Z,31.70
2024-03-09T08:06:24.264Z,31.60
2024-03-09T08:08:54.394Z,31.60
2024-03-09T08:11:29.538Z,31.50
2024-03-09T08:14:02.594Z,31.50
2024-03-09T08:16:32.072Z,31.50
2024-03-09T08:19:01.787Z,31.50
2024-03-09T08:21:31.817Z,31.40
2024-03-09T08:24:01.199Z,31.40
2024-03-09T08:26:33.665Z,31.50
2024-03-09T08:29:03.029Z,31.40
2024-03-09T08:31:33.689Z,31.40
2024-03-09T08:34:04.820Z,31.40
2024-03-09T08:36:35.341Z,31.40
2024-03-09T08:39:04.932Z,31.40
2024-03-09T08:41:37.637Z,31.40
2024-03-09T08:44:09.777Z,31.40
2024-03-09T08:46:39.359Z,31.40
2024-03-09T08:49:08.805Z,31.50
2024-03-09T08:51:41.257Z,31.50
2024-03-09T08:54:10.931Z,31.50
2024-03-09T08:56:40.725Z,31.50
2024-03-09T08:59:12.149Z,31.50
2024-03-09T09:01:41.750Z,31.50
2024-03-09T09:04:11.178Z,31.50
2024-03-09T09:06:40.715Z,31.40
2024-03-09T09:09:22.069Z,31.40
2024-03-09T09:11:52.494Z,31.50
2024-03-09T09:14:22.353Z,31.50
2024-03-09T09:16:51.694Z,31.50
2024-03-09T09:19:21.207Z,31.50
2024-03-09T09:21:51.528Z,31.50
2024-03-09T09:24:22.269Z,31.50
2024-03-09T09:26:52.448Z,31.50
2024-03-09T09:29:21.879Z,31.40
2024-03-09T09:31:52.271Z,31.40
2024-03-09T09:34:21.774Z,31.40
2024-03-09T09:36:51.108Z,31.40
2024-03-09T09:39:27.076Z,31.40
2024-03-09T09:42:00.310Z,31.40
2024-03-09T09:44:30.362Z,31.40
2024-03-09T09:47:00.886Z,31.30
2024-03-09T09:49:30.830Z,31.30
2024-03-09T09:52:06.016Z,31.30
2024-03-09T09:54:36.441Z,31.30
2024-03-09T09:57:06.252Z,31.20
2024-03-09T09:59:36.367Z,31.20
2024-03-09T10:02:05.991Z,31.10
2024-03-09T10:04:40.757Z,31.10
2024-03-09T10:07:13.257Z,31.10
2024-03-09T10:09:42.579Z,31.10
2024-03-09T10:12:27.596Z,31.10
2024-03-09T10:14:59.264Z,31.00
2024-03-09T10:17:29.059Z,31.00
2024-03-09T10:19:58.835Z,31.00
2024-03-09T10:22:31.415Z,30.90
2024-03-09T10:25:00.763Z,30.90
2024-03-09T10:27:32.853Z,30.90
2024-03-09T10:30:16.059Z,30.90
2024-03-09T10:32:45.994Z,30.90
2024-03-09T10:35:18.285Z,30.90
2024-03-09T10:37:50.066Z,30.80
2024-03-09T10:40:22.621Z,30.80
2024-03-09T10:42:53.490Z,30.80
2024-03-09T10:45:33.233Z,30.80
2024-03-09T10:48:07.602Z,30.80
2024-03-09T10:51:09.689Z,30.80
2024-03-09T10:54:08.799Z,30.80
2024-03-09T10:56:41.841Z,30.80
2024-03-09T10:59:16.122Z,30.80
2024-03-09T11:01:46.880Z,30.70
2024-03-09T11:04:18.500Z,30.70
2024-03-09T11:06:49.588Z,30.60
2024-03-09T11:09:31.522Z,30.60
2024-03-09T11:12:06.757Z,30.60
2024-03-09T11:14:36.343Z,30.60
2024-03-09T11:17:07.479Z,30.50
2024-03-09T11:19:37.802Z,30.50
2024-03-09T11:22:09.622Z,30.40
2024-03-09T11:24:42.518Z,30.30
2024-03-09T11:27:15.362Z,30.20
2024-03-09T11:29:45.854Z,30.20
2024-03-09T11:32:15.668Z,30.20
2024-03-09T11:34:45.062Z,30.10
2024-03-09T11:37:15.546Z,30.10
2024-03-09T11:39:46.966Z,30.00
2024-03-09T11:42:20.575Z,30.00
2024-03-09T11:44:49.975Z,29.90
2024-03-09T11:47:19.815Z,29.90
2024-03-09T11:49:50.131Z,29.80
2024-03-09T11:52:19.780Z,29.70
2024-03-09T11:54:54.575Z,29.70
2024-03-09T11:57:29.515Z,29.60
2024-03-09T12:00:02.363Z,29.60
2024-03-09T12:02:40.638Z,29.50
2024-03-09T12:05:26.829Z,29.50
2024-03-09T12:07:56.648Z,29.40
2024-03-09T12:10:29.497Z,29.30
2024-03-09T12:12:58.963Z,29.30
2024-03-09T12:15:31.835Z,29.20
2024-03-09T12:18:01.903Z,29.20
2024-03-09T12:20:34.471Z,29.10
2024-03-09T12:23:12.888Z,29.10
2024-03-09T12:25:45.029Z,29.00
2024-03-09T12:28:24.089Z,29.00
2024-03-09T12:30:54.061Z,28.90
2024-03-09T12:33:23.781Z,28.90
2024-03-09T12:36:00.000Z,28.90
2024-03-09T12:38:31.516Z,28.80
2024-03-09T12:41:02.581Z,28.80
2024-03-09T12:43:32.253Z,28.80
2024-03-09T12:46:08.361Z,28.80
2024-03-09T12:48:39.031Z,28.70
2024-03-09T12:51:09.898Z,28.70
2024-03-09T12:53:41.944Z,28.70
2024-03-09T12:56:12.357Z,28.70
2024-03-09T12:58:41.967Z,28.60
2024-03-09T13:01:11.624Z,28.60
2024-03-09T13:03:41.743Z,28.60
2024-03-09T13:06:11.325Z,28.60
2024-03-09T13:08:45.304Z,28.50
2024-03-09T13:11:14.912Z,28.50
2024-03-09T13:13:47.106Z,28.50
2024-03-09T13:16:19.286Z,28.40
2024-03-09T13:18:55.122Z,28.40
2024-03-09T13:21:24.996Z,28.40
2024-03-09T13:23:59.386Z,28.40
2024-03-09T13:26:29.676Z,28.30
2024-03-09T13:29:02.804Z,28.30
2024-03-09T13:31:35.200Z,28.30
2024-03-09T13:34:08.295Z,28.20
2024-03-09T13:36:38.611Z,28.20
2024-03-09T13:39:18.349Z,28.20
2024-03-09T13:41:48.542Z,28.20
2024-03-09T13:44:43.766Z,28.10
2024-03-09T13:47:14.065Z,28.10
2024-03-09T13:49:44.322Z,28.10
2024-03-09T13:52:13.967Z,28.10
2024-03-09T13:54:47.594Z,28.00
2024-03-09T13:57:17.627Z,28.00
2024-03-09T13:59:48.081Z,28.00
2024-03-09T14:02:18.952Z,28.00
2024-03-09T14:04:52.381Z,27.90
2024-03-09T14:07:24.675Z,27.90
2024-03-09T14:09:56.312Z,27.90
2024-03-09T14:12:25.736Z,27.80
2024-03-09T14:15:00.538Z,27.70
2024-03-09T14:17:30.702Z,27.70
2024-03-09T14:20:05.817Z,27.70
2024-03-09T14:22:36.814Z,27.70
2024-03-09T14:25:15.225Z,27.70
2024-03-09T14:27:44.132Z,27.60
2024-03-09T14:30:15.112Z,27.60
2024-03-09T14:32:48.926Z,27.60
2024-03-09T14:35:22.362Z,27.50
2024-03-09T14:37:58.458Z,27.40
2024-03-09T14:40:28.350Z,27.40
2024-03-09T14:42:57.912Z,27.40
2024-03-09T14:45:28.145Z,27.30
2024-03-09T14:48:01.809Z,27.30
2024-03-09T14:50:33.132Z,27.20
2024-03-09T14:53:03.051Z,27.20
2024-03-09T14:55:36.168Z,27.10
2024-03-09T14:58:10.000Z,27.10
2024-03-09T15:00:42.331Z,27.10
2024-03-09T15:03:36.234Z,27.00
2024-03-09T15:06:06.092Z,27.00
2024-03-09T15:08:35.579Z,27.00
2024-03-09T15:11:12.296Z,26.90
2024-03-09T15:13:42.850Z,26.80
2024-03-09T15:16:14.546Z,26.80
2024-03-09T15:18:44.063Z,26.70
2024-03-09T15:21:13.531Z,26.70
2024-03-09T15:23:42.953Z,26.70
2024-03-09T15:26:12.422Z,26.60
2024-03-09T15:28:46.926Z,26.60
2024-03-09T15:31:17.222Z,26.60
2024-03-09T15:33:47.604Z,26.50
2024-03-09T15:36:17.091Z,26.50
2024-03-09T15:38:46.678Z,26.40
2024-03-09T15:41:18.026Z,26.40
2024-03-09T15:43:52.095Z,26.40
2024-03-09T15:46:21.550Z,26.30
2024-03-09T15:48:51.353Z,26.30
2024-03-09T15:51:21.436Z,26.30
2024-03-09T15:53:52.787Z,26.30
2024-03-09T15:56:25.062Z,26.30
2024-03-09T15:58:54.510Z,26.20
2024-03-09T16:01:24.168Z,26.20
2024-03-09T16:03:54.969Z,26.20
2024-03-09T16:06:24.535Z,26.10
2024-03-09T16:08:54.953Z,26.10
2024-03-09T16:11:27.440Z,26.10
2024-03-09T16:13:56.979Z,26.10
2024-03-09T16:16:26.359Z,26.00
2024-03-09T16:18:56.921Z,25.90
2024-03-09T16:21:26.519Z,26.00
2024-03-09T16:23:56.411Z,25.90
2024-03-09T16:26:25.816Z,25.90
2024-03-09T16:28:55.402Z,25.90
2024-03-09T16:31:27.747Z,25.90
2024-03-09T16:33:58.934Z,25.80
2024-03-09T16:36:29.236Z,25.80
2024-03-09T16:38:58.706Z,25.80
2024-03-09T16:41:28.861Z,25.70
2024-03-09T16:43:58.738Z,25.70
2024-03-09T16:46:28.943Z,25.70
2024-03-09T16:48:59.896Z,25.70
2024-03-09T16:51:30.233Z,25.60
2024-03-09T16:53:59.762Z,25.70
2024-03-09T16:56:30.704Z,25.70
2024-03-09T16:59:00.915Z,25.60
2024-03-09T17:01:34.338Z,25.60
2024-03-09T17:04:04.395Z,25.60
2024-03-09T17:06:34.823Z,25.60
2024-03-09T17:09:11.422Z,25.60
2024-03-09T17:11:42.196Z,25.60
2024-03-09T17:14:11.747Z,25.60
2024-03-09T17:16:41.164Z,25.60
2024-03-09T17:19:13.352Z,25.60
2024-03-09T17:21:42.732Z,25.60
2024-03-09T17:24:12.308Z,25.60
2024-03-09T17:26:41.828Z,25.60
2024-03-09T17:29:11.264Z,25.60
2024-03-09T17:31:40.683Z,25.60
2024-03-09T17:34:10.390Z,25.60
2024-03-09T17:36:40.262Z,25.60
2024-03-09T17:39:09.865Z,25.60
2024-03-09T17:41:39.340Z,25.50
2024-03-09T17:44:12.262Z,25.50
2024-03-09T17:46:42.202Z,25.50
2024-03-09T17:49:13.908Z,25.50
2024-03-09T17:51:44.579Z,25.50
2024-03-09T17:54:15.322Z,25.50
2024-03-09T17:56:47.087Z,25.50
2024-03-09T17:59:17.220Z,25.50
2024-03-09T18:01:46.833Z,25.40
2024-03-09T18:04:16.255Z,25.40
2024-03-09T18:06:47.354Z,25.40
2024-03-09T18:09:23.710Z,25.40
2024-03-09T18:11:53.757Z,25.40
2024-03-09T18:14:25.126Z,25.40
2024-03-09T18:16:55.925Z,25.40
2024-03-09T18:19:26.093Z,25.40
2024-03-09T18:21:55.506Z,25.40
2024-03-09T18:24:25.139Z,25.30
2024-03-09T18:26:55.921Z,25.30
2024-03-09T18:29:25.792Z,25.30
2024-03-09T18:31:55.265Z,25.30
2024-03-09T18:34:24.647Z,25.30
2024-03-09T18:36:58.204Z,25.20
2024-03-09T18:39:27.634Z,25.20
2024-03-09T18:41:57.254Z,25.20
2024-03-09T18:44:26.732Z,25.20
2024-03-09T18:46:56.187Z,25.20
2024-03-09T18:49:25.754Z,25.20
2024-03-09T18:52:41.565Z,25.20
2024-03-09T18:55:15.693Z,25.20
2024-03-09T18:57:45.117Z,25.20
2024-03-09T19:00:19.859Z,25.20
2024-03-09T19:02:52.059Z,25.20
2024-03-09T19:05:24.828Z,25.20
2024-03-09T19:08:05.347Z,25.20
2024-03-09T19:10:36.948Z,25.20
2024-03-09T19:13:07.212Z,25.20
2024-03-09T19:15:37.290Z,25.20
2024-03-09T19:18:07.000Z,25.20
2024-03-09T19:20:36.947Z,25.20
2024-03-09T19:23:07.037Z,25.20
2024-03-09T19:25:38.856Z,25.10
2024-03-09T19:28:08.592Z,25.10
2024-03-09T19:30:38.067Z,25.10
2024-03-09T19:33:07.865Z,25.10
2024-03-09T19:35:38.389Z,25.00
2024-03-09T19:38:07.892Z,25.00
2024-03-09T19:40:37.368Z,25.00
2024-03-09T19:43:06.962Z,25.00
2024-03-09T19:45:36.832Z,25.00
2024-03-09T19:48:13.145Z,25.00
2024-03-09T19:50:42.926Z,25.00
2024-03-09T19:53:12.624Z,25.00
2024-03-09T19:55:42.138Z,25.00
2024-03-09T19:58:11.891Z,25.00
2024-03-09T20:00:45.584Z,25.00
2024-03-09T20:03:15.595Z,25.00
2024-03-09T20:05:46.126Z,25.00
2024-03-09T20:08:16.434Z,25.00
2024-03-09T20:10:46.085Z,25.00
2024-03-09T20:13:16.450Z,25.00
2024-03-09T20:15:47.369Z,25.00
2024-03-09T20:18:17.055Z,25.00
2024-03-09T20:20:47.725Z,25.00
2024-03-09T20:23:17.306Z,25.00
2024-03-09T20:25:46.864Z,25.00
2024-03-09T20:28:19.371Z,24.90
2024-03-09T20:30:49.919Z,24.90
2024-03-09T20:33:19.646Z,24.90
2024-03-09T20:35:48.996Z,24.90
2024-03-09T20:38:19.257Z,24.80
2024-03-09T20:40:48.793Z,24.90
2024-03-09T20:43:18.238Z,24.90
2024-03-09T20:45:52.086Z,24.90
2024-03-09T20:48:21.765Z,24.90
2024-03-09T20:50:52.865Z,24.90
2024-03-09T20:53:25.542Z,24.90
2024-03-09T20:55:55.007Z,24.90
2024-03-09T20:58:33.780Z,24.90
2024-03-09T21:01:03.267Z,24.90
2024-03-09T21:03:32.674Z,24.90
2024-03-09T21:06:02.681Z,24.90
2024-03-09T21:08:32.174Z,25.00
2024-03-09T21:11:01.784Z,24.90
2024-03-09T21:13:38.641Z,24.90
2024-03-09T21:16:12.178Z,25.00
2024-03-09T21:18:41.885Z,24.90
2024-03-09T21:21:11.773Z,24.90
2024-03-09T21:23:41.211Z,24.90
2024-03-09T21:26:11.383Z,24.90
2024-03-09T21:28:42.406Z,24.90
2024-03-09T21:31:13.242Z,24.90
2024-03-09T21:33:42.644Z,24.90
2024-03-09T21:36:12.644Z,24.80
2024-03-09T21:38:42.195Z,24.80
2024-03-09T21:41:11.545Z,24.90
2024-03-09T21:43:43.060Z,24.80
2024-03-09T21:46:12.616Z,24.80
2024-03-09T21:48:42.014Z,24.80
2024-03-09T21:51:12.051Z,24.80
2024-03-09T21:53:43.231Z,24.80
2024-03-09T21:56:13.718Z,24.80
2024-03-09T21:58:43.786Z,24.80
2024-03-09T22:01:13.947Z,24.90
2024-03-09T22:03:43.382Z,24.80
2024-03-09T22:06:12.995Z,24.90
2024-03-09T22:08:42.536Z,24.80
2024-03-09T22:11:15.105Z,24.90
2024-03-09T22:13:47.997Z,24.90
2024-03-09T22:16:19.860Z,24.90
2024-03-09T22:18:49.356Z,24.90
2024-03-09T22:21:18.985Z,24.90
2024-03-09T22:23:49.195Z,24.90
2024-03-09T22:26:18.642Z,25.00
2024-03-09T22:28:48.492Z,25.00
2024-03-09T22:31:17.978Z,25.00
2024-03-09T22:33:48.295Z,25.00
2024-03-09T22:36:18.538Z,25.00
2024-03-09T22:38:47.892Z,25.00
2024-03-09T22:41:17.975Z,25.10
2024-03-09T22:43:47.961Z,25.10
2024-03-09T22:46:17.749Z,25.10
2024-03-09T22:48:47.421Z,25.10
2024-03-09T22:51:18.265Z,25.00
2024-03-09T22:53:47.751Z,25.00
2024-03-09T22:56:17.101Z,25.00
2024-03-09T22:58:46.604Z,25.00
2024-03-09T23:01:26.957Z,25.00
2024-03-09T23:03:56.663Z,25.00
2024-03-09T23:06:26.209Z,25.00
2024-03-09T23:08:56.607Z,25.00
2024-03-09T23:11:26.041Z,25.00
2024-03-09T23:13:55.689Z,25.00
2024-03-09T23:16:25.158Z,24.90
2024-03-09T23:18:54.587Z,24.90
2024-03-09T23:21:24.115Z,24.90
2024-03-09T23:23:53.771Z,24.80
2024-03-09T23:26:24.108Z,24.80
2024-03-09T23:28:54.171Z,24.80
2024-03-09T23:31:31.013Z,24.80
2024-03-09T23:34:00.487Z,24.80
2024-03-09T23:36:29.774Z,24.80
2024-03-09T23:38:59.701Z,24.80
2024-03-09T23:41:31.788Z,24.80
2024-03-09T23:44:01.296Z,24.80
2024-03-09T23:46:30.838Z,24.80
2024-03-09T23:49:02.436Z,24.80
2024-03-09T23:51:32.748Z,24.80
2024-03-09T23:54:02.707Z,24.90
2024-03-09T23:56:32.287Z,24.90
2024-03-09T23:59:02.769Z,24.90
